createdAt,value
2022-12-12T00:01:35.028Z,14.80
2022-12-12T00:06:38.036Z,13.33
2022-12-12T00:11:41.059Z,12.73
2022-12-12T00:16:43.537Z,14.07
2022-12-12T00:21:46.162Z,12.97
2022-12-12T00:26:48.544Z,11.97
2022-12-12T00:31:51.051Z,11.73
2022-12-12T00:36:53.551Z,14.40
2022-12-12T00:41:55.932Z,12.50
2022-12-12T00:46:58.352Z,10.70
2022-12-12T00:52:00.906Z,11.37
2022-12-12T00:57:03.429Z,8.47
2022-12-12T01:02:06.205Z,11.43
2022-12-12T01:07:09.095Z,9.77
2022-12-12T01:12:11.872Z,10.33
2022-12-12T01:17:14.375Z,11.40
2022-12-12T01:22:17.247Z,10.60
2022-12-12T01:27:19.947Z,11.70
2022-12-12T01:32:22.620Z,7.57
2022-12-12T01:37:25.240Z,10.60
2022-12-12T01:42:29.607Z,10.47
2022-12-12T01:47:32.027Z,8.87
2022-12-12T01:52:50.039Z,10.10
2022-12-12T01:57:54.455Z,8.73
2022-12-12T02:02:57.890Z,8.37
2022-12-12T02:08:03.307Z,9.43
2022-12-12T02:13:11.795Z,9.13
2022-12-12T02:18:22.420Z,10.40
2022-12-12T02:24:02.151Z,9.70
2022-12-12T02:29:29.095Z,10.37
2022-12-12T02:34:38.946Z,8.23
2022-12-12T02:39:44.651Z,11.07
2022-12-12T02:45:22.941Z,9.13
2022-12-12T02:50:28.721Z,9.63
2022-12-12T02:55:35.084Z,9.13
2022-12-12T03:00:52.784Z,12.10
2022-12-12T03:06:25.961Z,10.57
2022-12-12T03:11:46.092Z,9.97
2022-12-12T03:16:52.352Z,10.00
2022-12-12T03:22:03.486Z,10.13
2022-12-12T03:27:12.411Z,12.40
2022-12-12T03:32:23.634Z,10.00
2022-12-12T03:37:34.656Z,10.93
2022-12-12T03:42:48.918Z,11.70
2022-12-12T03:48:03.315Z,11.80
2022-12-12T03:53:19.089Z,11.63
2022-12-12T03:58:28.717Z,14.53
2022-12-12T04:03:43.002Z,12.23
2022-12-12T04:09:07.328Z,12.47
2022-12-12T04:14:24.486Z,11.70
2022-12-12T04:20:34.533Z,13.17
2022-12-12T04:26:23.547Z,13.93
2022-12-12T04:31:29.208Z,11.73
2022-12-12T04:36:34.641Z,15.10
2022-12-12T04:41:40.638Z,16.60
2022-12-12T04:46:44.891Z,15.00
2022-12-12T04:51:52.784Z,16.63
2022-12-12T04:57:00.104Z,16.90
2022-12-12T05:02:10.070Z,18.47
2022-12-12T05:07:23.543Z,16.00
2022-12-12T05:12:26.955Z,17.00
2022-12-12T05:17:35.345Z,16.30
2022-12-12T05:22:40.984Z,16.03
2022-12-12T05:27:43.457Z,16.50
2022-12-12T05:32:45.999Z,15.23
2022-12-12T05:37:51.971Z,15.90
2022-12-12T05:42:54.923Z,16.67
2022-12-12T05:47:57.971Z,16.10
2022-12-12T05:53:00.392Z,17.40
2022-12-12T05:58:02.964Z,16.57
2022-12-12T06:03:05.433Z,15.37
2022-12-12T06:08:08.367Z,14.70
2022-12-12T06:13:10.929Z,15.93
2022-12-12T06:18:13.359Z,16.37
2022-12-12T06:23:15.747Z,17.10
2022-12-12T06:28:18.129Z,14.90
2022-12-12T06:33:20.758Z,17.67
2022-12-12T06:38:23.250Z,14.00
2022-12-12T06:43:25.632Z,13.33
2022-12-12T06:48:28.263Z,17.40
2022-12-12T06:53:30.695Z,16.07
2022-12-12T06:58:33.135Z,13.83
2022-12-12T07:03:35.756Z,16.90
2022-12-12T07:08:38.747Z,14.47
2022-12-12T07:13:41.519Z,16.13
2022-12-12T07:18:44.052Z,14.67
2022-12-12T07:23:46.813Z,15.33
2022-12-12T07:28:50.671Z,15.63
2022-12-12T07:33:54.633Z,17.63
2022-12-12T07:38:57.080Z,16.37
2022-12-12T07:44:00.185Z,17.83
2022-12-12T07:49:02.560Z,17.80
2022-12-12T07:54:05.067Z,16.33
2022-12-12T07:59:08.178Z,16.43
2022-12-12T08:04:10.867Z,17.10
2022-12-12T08:09:13.326Z,18.70
2022-12-12T08:14:15.816Z,17.20
2022-12-12T08:19:18.743Z,19.70
2022-12-12T08:24:21.955Z,15.17
2022-12-12T08:29:24.420Z,15.90
2022-12-12T08:34:27.023Z,16.43
2022-12-12T08:39:29.435Z,19.10
2022-12-12T08:44:32.274Z,17.63
2022-12-12T08:49:34.662Z,17.23
2022-12-12T08:54:38.465Z,18.57
2022-12-12T08:59:41.034Z,16.97
2022-12-12T09:04:43.658Z,15.50
2022-12-12T09:09:46.079Z,16.30
2022-12-12T09:14:48.526Z,16.83
2022-12-12T09:19:50.971Z,16.60
2022-12-12T09:24:53.402Z,17.50
2022-12-12T09:29:56.176Z,15.63
2022-12-12T09:34:58.654Z,15.63
2022-12-12T09:40:01.498Z,14.20
2022-12-12T09:45:08.056Z,15.83
2022-12-12T09:50:32.339Z,13.60
2022-12-12T09:55:49.664Z,15.17
2022-12-12T10:01:21.558Z,13.73
2022-12-12T10:06:38.706Z,14.97
2022-12-12T10:11:55.971Z,16.03
2022-12-12T10:17:00.087Z,12.67
2022-12-12T10:22:14.986Z,15.87
2022-12-12T10:27:17.743Z,14.67
2022-12-12T10:32:29.287Z,13.50
2022-12-12T10:37:45.464Z,13.80
2022-12-12T10:43:18.865Z,15.37
2022-12-12T10:48:21.398Z,14.73
2022-12-12T10:53:24.547Z,15.37
2022-12-12T10:58:43.891Z,14.43
2022-12-12T11:03:52.285Z,11.47
2022-12-12T11:09:00.828Z,10.03
2022-12-12T11:14:21.050Z,9.93
2022-12-12T11:19:27.408Z,10.87
2022-12-12T11:24:32.701Z,9.73
2022-12-12T11:29:45.557Z,16.43
2022-12-12T11:34:54.352Z,10.40
2022-12-12T11:39:57.761Z,9.97
2022-12-12T11:45:14.352Z,8.90
2022-12-12T11:50:22.563Z,10.30
2022-12-12T11:55:54.737Z,8.30
2022-12-12T12:01:07.079Z,8.93
2022-12-12T12:06:37.004Z,8.47
2022-12-12T12:11:53.310Z,9.67
2022-12-12T12:17:30.395Z,5.93
2022-12-12T12:22:58.340Z,6.73
2022-12-12T12:28:21.027Z,5.73
2022-12-12T12:33:59.150Z,7.67
2022-12-12T12:39:49.152Z,7.53
2022-12-12T12:44:55.322Z,5.00
2022-12-12T12:50:21.493Z,5.30
2022-12-12T12:55:32.461Z,6.70
2022-12-12T13:00:36.568Z,5.87
2022-12-12T13:05:56.866Z,7.00
2022-12-12T13:11:15.679Z,6.17
2022-12-12T13:16:22.993Z,14.93
2022-12-12T13:21:56.860Z,17.10
2022-12-12T13:27:21.030Z,17.17
2022-12-12T13:33:10.868Z,13.83
2022-12-12T13:38:27.717Z,19.07
2022-12-12T13:43:42.530Z,16.00
2022-12-12T13:48:56.186Z,16.40
2022-12-12T13:54:12.741Z,14.17
2022-12-12T13:59:27.915Z,13.80
2022-12-12T14:04:35.842Z,13.93
2022-12-12T14:09:50.923Z,15.00
2022-12-12T14:15:01.306Z,13.83
2022-12-12T14:20:05.273Z,21.63
2022-12-12T14:25:19.605Z,18.60
2022-12-12T14:30:54.194Z,14.57
2022-12-12T14:36:09.049Z,15.33
2022-12-12T14:41:18.218Z,16.10
2022-12-12T14:46:21.496Z,13.30
2022-12-12T14:51:30.033Z,12.57
2022-12-12T14:56:41.100Z,17.50
2022-12-12T15:01:53.379Z,17.10
2022-12-12T15:07:01.291Z,12.07
2022-12-12T15:12:43.377Z,14.73
2022-12-12T15:17:50.828Z,14.07
2022-12-12T15:22:57.348Z,12.80
2022-12-12T15:28:00.841Z,14.73
2022-12-12T15:33:07.692Z,13.77
2022-12-12T15:38:13.926Z,12.07
2022-12-12T15:43:23.419Z,13.17
2022-12-12T15:48:26.556Z,13.00
2022-12-12T15:53:55.639Z,12.10
2022-12-12T15:59:09.995Z,20.57
2022-12-12T16:04:12.433Z,13.13
2022-12-12T16:09:19.763Z,14.20
2022-12-12T16:14:42.828Z,12.67
2022-12-12T16:19:48.003Z,14.03
2022-12-12T16:24:54.237Z,16.30
2022-12-12T16:29:56.655Z,16.27
2022-12-12T16:34:59.110Z,11.27
2022-12-12T16:40:01.896Z,15.87
2022-12-12T16:45:05.057Z,11.83
2022-12-12T16:50:08.318Z,15.07
2022-12-12T16:55:31.288Z,14.27
2022-12-12T17:00:33.787Z,17.03
2022-12-12T17:05:38.813Z,15.50
2022-12-12T17:10:41.825Z,14.60
2022-12-12T17:15:44.409Z,15.43
2022-12-12T17:20:47.778Z,16.00
2022-12-12T17:25:50.368Z,22.43
2022-12-12T17:30:53.796Z,13.87
2022-12-12T17:36:01.509Z,15.03
2022-12-12T17:41:09.055Z,13.90
2022-12-12T17:46:14.801Z,12.33
2022-12-12T17:51:20.095Z,12.27
2022-12-12T17:56:25.167Z,19.10
2022-12-12T18:01:31.602Z,14.27
2022-12-12T18:06:36.169Z,15.03
2022-12-12T18:11:39.243Z,14.40
2022-12-12T18:16:44.236Z,13.53
2022-12-12T18:22:02.711Z,13.07
2022-12-12T18:27:05.490Z,12.73
2022-12-12T18:32:08.231Z,14.73
2022-12-12T18:37:11.652Z,13.03
2022-12-12T18:42:14.252Z,15.37
2022-12-12T18:47:16.705Z,13.23
2022-12-12T18:52:19.168Z,11.57
2022-12-12T18:57:21.615Z,12.80
2022-12-12T19:02:24.122Z,12.50
2022-12-12T19:07:26.610Z,13.07
2022-12-12T19:12:29.062Z,11.87
2022-12-12T19:17:31.842Z,13.00
2022-12-12T19:22:49.994Z,14.00
2022-12-12T19:27:52.675Z,13.83
2022-12-12T19:32:55.846Z,13.20
2022-12-12T19:37:58.229Z,12.23
2022-12-12T19:43:00.627Z,12.87
2022-12-12T19:48:03.169Z,12.50
2022-12-12T19:53:05.702Z,12.67
2022-12-12T19:58:08.369Z,13.73
2022-12-12T20:03:11.174Z,11.50
2022-12-12T20:08:13.740Z,12.57
2022-12-12T20:13:16.164Z,13.97
2022-12-12T20:18:18.649Z,16.70
2022-12-12T20:23:21.089Z,18.77
2022-12-12T20:28:23.752Z,29.10
2022-12-12T20:33:26.150Z,15.57
2022-12-12T20:38:30.882Z,13.70
2022-12-12T20:43:33.536Z,15.30
2022-12-12T20:48:36.655Z,13.60
2022-12-12T20:53:41.448Z,14.33
2022-12-12T20:58:44.599Z,14.03
2022-12-12T21:03:48.860Z,14.83
2022-12-12T21:08:52.726Z,12.77
2022-12-12T21:13:55.605Z,10.97
2022-12-12T21:19:00.600Z,16.43
2022-12-12T21:24:03.927Z,14.97
2022-12-12T21:29:06.826Z,11.23
2022-12-12T21:34:10.025Z,11.07
2022-12-12T21:39:13.654Z,10.47
2022-12-12T21:44:16.091Z,10.80
2022-12-12T21:49:27.933Z,10.60
2022-12-12T21:54:31.376Z,10.40
2022-12-12T21:59:37.554Z,11.43
2022-12-12T22:04:40.355Z,10.40
2022-12-12T22:09:57.233Z,13.90
2022-12-12T22:15:21.090Z,10.17
2022-12-12T22:20:47.137Z,9.60
2022-12-12T22:25:51.962Z,12.53
2022-12-12T22:30:55.105Z,11.87
2022-12-12T22:36:06.456Z,12.00
2022-12-12T22:41:15.102Z,12.77
2022-12-12T22:46:28.255Z,10.83
2022-12-12T22:51:44.387Z,12.20
2022-12-12T22:56:54.009Z,11.33
2022-12-12T23:02:02.885Z,10.13
2022-12-12T23:07:25.010Z,11.00
2022-12-12T23:13:33.115Z,10.37
2022-12-12T23:18:27.698Z,9.23
2022-12-12T23:23:32.582Z,9.43
2022-12-12T23:28:36.577Z,12.00
2022-12-12T23:33:39.848Z,12.00
2022-12-12T23:38:42.757Z,12.23
2022-12-12T23:43:45.294Z,11.13
2022-12-12T23:48:47.843Z,15.53
2022-12-12T23:53:50.252Z,13.93
2022-12-12T23:59:20.116Z,11.17
